PWSweather.com
Personal Weather Stations
Station Observations
719732
Ponferrada, PonferradaES 24411

PonferradaPonferradaES 24411

Lat: 42.5728, Lon: -6.6425

Elevation: 1676

Station Type: PCE-FWS 20 con garita Ambient Weather SRS100LX

www.meteo.spyfly.es

High Low Average
Temperature 90.5°F32.5°C 57.9°F14.4°C 74.6°F23.7°C
Dew Point 65.7°F18.7°C 47.8°F8.8°C 61.1°F16.2°C
Winds 9.8 mph 15.8 kmh Calm Calm 3.0 mph SW4.8 kmh SW
Wind Gusts 13.6 mph21.9 kmh -- 6.0 mph9.7 kmh
Humidity 99% 24% 68%
Pressure 30.03 in1016.9 mb 29.93 in1013.5 mb -
Precipitation 0.00 in0.0 mm - -
Hour Temp Dew Point Humidity Winds Wind Gusts Pressure Precip Precip Rate Daily Precip Total
12:00 AM 70.5°F21.4°C 63.4°F17.4°C 78% 0.7 mph NW1.1 kmh NW 3.1 mph5.0 kmh 29.99 in1015.6 mb 0.00 in0.0 mm 0.00 in0.0 mm 0.00 in0.0 mm
12:05 AM 70.2°F21.2°C 63.4°F17.4°C 79% 0.7 mph NW1.1 kmh NW 3.1 mph5.0 kmh 29.99 in1015.6 mb 0.00 in0.0 mm 0.00 in0.0 mm 0.00 in0.0 mm
12:10 AM 69.8°F21.0°C 63.4°F17.4°C 80% 0.7 mph NW1.1 kmh NW 3.1 mph5.0 kmh 29.99 in1015.6 mb 0.00 in0.0 mm 0.00 in0.0 mm 0.00 in0.0 mm
12:15 AM 69.6°F20.9°C 63.9°F17.7°C 82% 0.7 mph WSW1.1 kmh WSW 1.6 mph2.6 kmh 29.99 in1015.6 mb 0.00 in0.0 mm 0.00 in0.0 mm 0.00 in0.0 mm
12:20 AM 69.4°F20.8°C 63.7°F17.6°C 82% Calm Calm 2.2 mph3.5 kmh 29.99 in1015.6 mb 0.00 in0.0 mm 0.00 in0.0 mm 0.00 in0.0 mm
12:25 AM 69.3°F20.7°C 63.9°F17.7°C 83% Calm Calm 2.2 mph3.5 kmh 30.00 in1015.9 mb 0.00 in0.0 mm 0.00 in0.0 mm 0.00 in0.0 mm
12:30 AM 68.9°F20.5°C 63.6°F17.6°C 83% Calm Calm 2.2 mph3.5 kmh 29.99 in1015.6 mb 0.00 in0.0 mm 0.00 in0.0 mm 0.00 in0.0 mm
12:35 AM 68.4°F20.2°C 63.0°F17.2°C 83% 1.6 mph NW2.6 kmh NW 2.2 mph3.5 kmh 29.99 in1015.6 mb 0.00 in0.0 mm 0.00 in0.0 mm 0.00 in0.0 mm
12:40 AM 67.6°F19.8°C 63.0°F17.2°C 85% 0.7 mph NNW1.1 kmh NNW 2.2 mph3.5 kmh 29.99 in1015.6 mb 0.00 in0.0 mm 0.00 in0.0 mm 0.00 in0.0 mm
12:45 AM 67.1°F19.5°C 62.8°F17.1°C 86% 1.6 mph N2.6 kmh N 3.1 mph5.0 kmh 29.99 in1015.6 mb 0.00 in0.0 mm 0.00 in0.0 mm 0.00 in0.0 mm
12:50 AM 66.6°F19.2°C 62.6°F17.0°C 87% 1.6 mph N2.6 kmh N 3.1 mph5.0 kmh 29.99 in1015.6 mb 0.00 in0.0 mm 0.00 in0.0 mm 0.00 in0.0 mm
12:55 AM 66.2°F19.0°C 62.6°F17.0°C 88% 0.7 mph NNE1.1 kmh NNE 2.2 mph3.5 kmh 30.00 in1015.9 mb 0.00 in0.0 mm 0.00 in0.0 mm 0.00 in0.0 mm
01:00 AM 65.7°F18.7°C 62.4°F16.9°C 89% 1.6 mph NNE2.6 kmh NNE 2.2 mph3.5 kmh 30.00 in1015.9 mb 0.00 in0.0 mm 0.00 in0.0 mm 0.00 in0.0 mm
01:05 AM 65.7°F18.7°C 62.4°F16.9°C 89% 1.6 mph E2.6 kmh E 2.2 mph3.5 kmh 30.00 in1015.9 mb 0.00 in0.0 mm 0.00 in0.0 mm 0.00 in0.0 mm
01:10 AM 65.5°F18.6°C 62.8°F17.1°C 91% 1.6 mph SE2.6 kmh SE 3.8 mph6.1 kmh 30.01 in1016.3 mb 0.00 in0.0 mm 0.00 in0.0 mm 0.00 in0.0 mm
01:15 AM 65.5°F18.6°C 63.1°F17.3°C 92% 0.7 mph SSE1.1 kmh SSE 3.8 mph6.1 kmh 30.00 in1015.9 mb 0.00 in0.0 mm 0.00 in0.0 mm 0.00 in0.0 mm
01:20 AM 65.3°F18.5°C 62.6°F17.0°C 91% Calm Calm 3.1 mph5.0 kmh 30.00 in1015.9 mb 0.00 in0.0 mm 0.00 in0.0 mm 0.00 in0.0 mm
01:25 AM 65.1°F18.4°C 62.5°F16.9°C 91% 0.7 mph E1.1 kmh E 3.1 mph5.0 kmh 30.00 in1015.9 mb 0.00 in0.0 mm 0.00 in0.0 mm 0.00 in0.0 mm
01:30 AM 64.8°F18.2°C 62.1°F16.7°C 91% Calm Calm 2.2 mph3.5 kmh 30.00 in1015.9 mb 0.00 in0.0 mm 0.00 in0.0 mm 0.00 in0.0 mm
01:35 AM 64.4°F18.0°C 62.0°F16.7°C 92% 0.7 mph NNW1.1 kmh NNW 3.1 mph5.0 kmh 30.00 in1015.9 mb 0.00 in0.0 mm 0.00 in0.0 mm 0.00 in0.0 mm
01:40 AM 64.2°F17.9°C 61.9°F16.6°C 92% 0.7 mph NW1.1 kmh NW 3.1 mph5.0 kmh 30.00 in1015.9 mb 0.00 in0.0 mm 0.00 in0.0 mm 0.00 in0.0 mm
01:45 AM 64.0°F17.8°C 61.7°F16.5°C 92% Calm Calm 1.6 mph2.6 kmh 30.00 in1015.9 mb 0.00 in0.0 mm 0.00 in0.0 mm 0.00 in0.0 mm
01:50 AM 63.7°F17.6°C 61.3°F16.3°C 92% Calm Calm 1.6 mph2.6 kmh 29.99 in1015.6 mb 0.00 in0.0 mm 0.00 in0.0 mm 0.00 in0.0 mm
01:55 AM 63.5°F17.5°C 61.5°F16.4°C 93% 0.7 mph NW1.1 kmh NW 1.6 mph2.6 kmh 29.99 in1015.6 mb 0.00 in0.0 mm 0.00 in0.0 mm 0.00 in0.0 mm
02:00 AM 63.3°F17.4°C 61.3°F16.3°C 93% 0.7 mph NW1.1 kmh NW 2.2 mph3.5 kmh 29.99 in1015.6 mb 0.00 in0.0 mm 0.00 in0.0 mm 0.00 in0.0 mm
02:05 AM 63.1°F17.3°C 61.1°F16.2°C 93% Calm Calm 2.2 mph3.5 kmh 29.99 in1015.6 mb 0.00 in0.0 mm 0.00 in0.0 mm 0.00 in0.0 mm
02:10 AM 63.0°F17.2°C 61.2°F16.2°C 94% 2.2 mph E3.5 kmh E 3.8 mph6.1 kmh 30.00 in1015.9 mb 0.00 in0.0 mm 0.00 in0.0 mm 0.00 in0.0 mm
02:15 AM 63.0°F17.2°C 61.2°F16.2°C 94% 1.6 mph E2.6 kmh E 3.8 mph6.1 kmh 30.00 in1015.9 mb 0.00 in0.0 mm 0.00 in0.0 mm 0.00 in0.0 mm
02:20 AM 63.0°F17.2°C 61.2°F16.2°C 94% Calm Calm 3.8 mph6.1 kmh 30.00 in1015.9 mb 0.00 in0.0 mm 0.00 in0.0 mm 0.00 in0.0 mm
02:25 AM 62.8°F17.1°C 61.0°F16.1°C 94% 0.7 mph N1.1 kmh N 2.2 mph3.5 kmh 30.00 in1015.9 mb 0.00 in0.0 mm 0.00 in0.0 mm 0.00 in0.0 mm
02:30 AM 62.6°F17.0°C 60.9°F16.1°C 94% 1.6 mph N2.6 kmh N 2.2 mph3.5 kmh 30.00 in1015.9 mb 0.00 in0.0 mm 0.00 in0.0 mm 0.00 in0.0 mm
02:35 AM 62.4°F16.9°C 61.0°F16.1°C 95% Calm Calm 2.2 mph3.5 kmh 30.00 in1015.9 mb 0.00 in0.0 mm 0.00 in0.0 mm 0.00 in0.0 mm
02:40 AM 62.1°F16.7°C 60.6°F15.9°C 95% Calm Calm 2.2 mph3.5 kmh 29.99 in1015.6 mb 0.00 in0.0 mm 0.00 in0.0 mm 0.00 in0.0 mm
02:50 AM 61.7°F16.5°C 60.3°F15.7°C 95% 2.2 mph E3.5 kmh E 3.1 mph5.0 kmh 30.00 in1015.9 mb 0.00 in0.0 mm 0.00 in0.0 mm 0.00 in0.0 mm
02:55 AM 61.9°F16.6°C 60.7°F15.9°C 96% 0.7 mph E1.1 kmh E 4.5 mph7.2 kmh 30.00 in1015.9 mb 0.00 in0.0 mm 0.00 in0.0 mm 0.00 in0.0 mm
03:00 AM 61.9°F16.6°C 60.7°F15.9°C 96% 0.7 mph E1.1 kmh E 4.5 mph7.2 kmh 29.99 in1015.6 mb 0.00 in0.0 mm 0.00 in0.0 mm 0.00 in0.0 mm
03:05 AM 61.9°F16.6°C 61.0°F16.1°C 97% Calm Calm 2.2 mph3.5 kmh 30.00 in1015.9 mb 0.00 in0.0 mm 0.00 in0.0 mm 0.00 in0.0 mm
03:10 AM 61.9°F16.6°C 61.0°F16.1°C 97% Calm Calm 1.6 mph2.6 kmh 30.00 in1015.9 mb 0.00 in0.0 mm 0.00 in0.0 mm 0.00 in0.0 mm
03:15 AM 61.5°F16.4°C 60.7°F15.9°C 97% Calm Calm -- 29.99 in1015.6 mb 0.00 in0.0 mm 0.00 in0.0 mm 0.00 in0.0 mm
03:20 AM 61.5°F16.4°C 60.7°F15.9°C 97% 1.6 mph E2.6 kmh E 2.2 mph3.5 kmh 30.00 in1015.9 mb 0.00 in0.0 mm 0.00 in0.0 mm 0.00 in0.0 mm
03:25 AM 61.2°F16.2°C 60.3°F15.7°C 97% 0.7 mph E1.1 kmh E 2.2 mph3.5 kmh 30.00 in1015.9 mb 0.00 in0.0 mm 0.00 in0.0 mm 0.00 in0.0 mm
03:30 AM 61.2°F16.2°C 60.3°F15.7°C 97% 1.6 mph E2.6 kmh E 2.2 mph3.5 kmh 30.00 in1015.9 mb 0.00 in0.0 mm 0.00 in0.0 mm 0.00 in0.0 mm
03:35 AM 61.2°F16.2°C 60.3°F15.7°C 97% 1.6 mph S2.6 kmh S 3.1 mph5.0 kmh 30.00 in1015.9 mb 0.00 in0.0 mm 0.00 in0.0 mm 0.00 in0.0 mm
03:40 AM 61.5°F16.4°C 61.0°F16.1°C 98% 0.7 mph SSW1.1 kmh SSW 3.1 mph5.0 kmh 29.99 in1015.6 mb 0.00 in0.0 mm 0.00 in0.0 mm 0.00 in0.0 mm
03:45 AM 61.9°F16.6°C 61.3°F16.3°C 98% 2.2 mph S3.5 kmh S 3.1 mph5.0 kmh 29.99 in1015.6 mb 0.00 in0.0 mm 0.00 in0.0 mm 0.00 in0.0 mm
03:50 AM 62.1°F16.7°C 61.5°F16.4°C 98% 0.7 mph S1.1 kmh S 3.8 mph6.1 kmh 29.99 in1015.6 mb 0.00 in0.0 mm 0.00 in0.0 mm 0.00 in0.0 mm
03:55 AM 62.2°F16.8°C 61.7°F16.5°C 98% 0.7 mph SSE1.1 kmh SSE 3.8 mph6.1 kmh 30.00 in1015.9 mb 0.00 in0.0 mm 0.00 in0.0 mm 0.00 in0.0 mm
04:00 AM 61.9°F16.6°C 61.3°F16.3°C 98% 0.7 mph N1.1 kmh N 2.2 mph3.5 kmh 30.00 in1015.9 mb 0.00 in0.0 mm 0.00 in0.0 mm 0.00 in0.0 mm
04:05 AM 61.3°F16.3°C 60.5°F15.8°C 97% Calm Calm 2.2 mph3.5 kmh 30.00 in1015.9 mb 0.00 in0.0 mm 0.00 in0.0 mm 0.00 in0.0 mm
04:10 AM 61.2°F16.2°C 60.0°F15.6°C 96% Calm Calm 2.2 mph3.5 kmh 30.00 in1015.9 mb 0.00 in0.0 mm 0.00 in0.0 mm 0.00 in0.0 mm
04:15 AM 60.8°F16.0°C 59.7°F15.4°C 96% 1.6 mph N2.6 kmh N 2.2 mph3.5 kmh 30.00 in1015.9 mb 0.00 in0.0 mm 0.00 in0.0 mm 0.00 in0.0 mm
04:20 AM 60.4°F15.8°C 59.6°F15.3°C 97% 1.6 mph N2.6 kmh N 2.2 mph3.5 kmh 30.00 in1015.9 mb 0.00 in0.0 mm 0.00 in0.0 mm 0.00 in0.0 mm
04:25 AM 60.3°F15.7°C 59.4°F15.2°C 97% 0.7 mph N1.1 kmh N 2.2 mph3.5 kmh 30.00 in1015.9 mb 0.00 in0.0 mm 0.00 in0.0 mm 0.00 in0.0 mm
04:30 AM 60.1°F15.6°C 59.2°F15.1°C 97% Calm Calm 2.2 mph3.5 kmh 30.00 in1015.9 mb 0.00 in0.0 mm 0.00 in0.0 mm 0.00 in0.0 mm
04:35 AM 59.9°F15.5°C 59.1°F15.1°C 97% Calm Calm 1.6 mph2.6 kmh 30.00 in1015.9 mb 0.00 in0.0 mm 0.00 in0.0 mm 0.00 in0.0 mm
04:40 AM 59.7°F15.4°C 59.2°F15.1°C 98% 1.6 mph ENE2.6 kmh ENE 3.1 mph5.0 kmh 30.00 in1015.9 mb 0.00 in0.0 mm 0.00 in0.0 mm 0.00 in0.0 mm
04:45 AM 59.7°F15.4°C 59.2°F15.1°C 98% Calm Calm 3.1 mph5.0 kmh 29.99 in1015.6 mb 0.00 in0.0 mm 0.00 in0.0 mm 0.00 in0.0 mm
04:50 AM 59.7°F15.4°C 59.2°F15.1°C 98% Calm Calm 2.2 mph3.5 kmh 29.99 in1015.6 mb 0.00 in0.0 mm 0.00 in0.0 mm 0.00 in0.0 mm
04:55 AM 59.7°F15.4°C 59.5°F15.3°C 99% 1.6 mph E2.6 kmh E 2.2 mph3.5 kmh 29.99 in1015.6 mb 0.00 in0.0 mm 0.00 in0.0 mm 0.00 in0.0 mm
05:00 AM 59.7°F15.4°C 59.5°F15.3°C 99% 2.2 mph E3.5 kmh E 3.8 mph6.1 kmh 30.00 in1015.9 mb 0.00 in0.0 mm 0.00 in0.0 mm 0.00 in0.0 mm
05:05 AM 59.7°F15.4°C 59.5°F15.3°C 99% 1.6 mph E2.6 kmh E 3.8 mph6.1 kmh 30.00 in1015.9 mb 0.00 in0.0 mm 0.00 in0.0 mm 0.00 in0.0 mm
05:10 AM 59.7°F15.4°C 59.5°F15.3°C 99% 1.6 mph E2.6 kmh E 3.8 mph6.1 kmh 29.99 in1015.6 mb 0.00 in0.0 mm 0.00 in0.0 mm 0.00 in0.0 mm
05:15 AM 59.7°F15.4°C 59.5°F15.3°C 99% Calm Calm 2.2 mph3.5 kmh 29.99 in1015.6 mb 0.00 in0.0 mm 0.00 in0.0 mm 0.00 in0.0 mm
05:20 AM 59.5°F15.3°C 59.3°F15.2°C 99% Calm Calm 2.2 mph3.5 kmh 30.00 in1015.9 mb 0.00 in0.0 mm 0.00 in0.0 mm 0.00 in0.0 mm
05:25 AM 59.4°F15.2°C 59.1°F15.1°C 99% Calm Calm 0.7 mph1.1 kmh 30.00 in1015.9 mb 0.00 in0.0 mm 0.00 in0.0 mm 0.00 in0.0 mm
05:30 AM 59.0°F15.0°C 58.7°F14.8°C 99% Calm Calm -- 30.00 in1015.9 mb 0.00 in0.0 mm 0.00 in0.0 mm 0.00 in0.0 mm
05:35 AM 58.8°F14.9°C 58.6°F14.8°C 99% Calm Calm -- 30.00 in1015.9 mb 0.00 in0.0 mm 0.00 in0.0 mm 0.00 in0.0 mm
05:40 AM 58.5°F14.7°C 58.2°F14.6°C 99% Calm Calm -- 30.00 in1015.9 mb 0.00 in0.0 mm 0.00 in0.0 mm 0.00 in0.0 mm
05:45 AM 58.5°F14.7°C 58.2°F14.6°C 99% Calm Calm -- 30.00 in1015.9 mb 0.00 in0.0 mm 0.00 in0.0 mm 0.00 in0.0 mm
05:50 AM 58.5°F14.7°C 58.2°F14.6°C 99% Calm Calm -- 30.00 in1015.9 mb 0.00 in0.0 mm 0.00 in0.0 mm 0.00 in0.0 mm
05:55 AM 58.3°F14.6°C 58.0°F14.4°C 99% Calm Calm -- 30.01 in1016.3 mb 0.00 in0.0 mm 0.00 in0.0 mm 0.00 in0.0 mm
06:00 AM 58.3°F14.6°C 58.0°F14.4°C 99% Calm Calm -- 30.01 in1016.3 mb 0.00 in0.0 mm 0.00 in0.0 mm 0.00 in0.0 mm
06:05 AM 58.1°F14.5°C 57.8°F14.3°C 99% Calm Calm -- 30.01 in1016.3 mb 0.00 in0.0 mm 0.00 in0.0 mm 0.00 in0.0 mm
06:10 AM 58.1°F14.5°C 57.8°F14.3°C 99% Calm Calm -- 30.01 in1016.3 mb 0.00 in0.0 mm 0.00 in0.0 mm 0.00 in0.0 mm
06:15 AM 57.9°F14.4°C 57.7°F14.3°C 99% Calm Calm -- 30.01 in1016.3 mb 0.00 in0.0 mm 0.00 in0.0 mm 0.00 in0.0 mm
06:20 AM 58.1°F14.5°C 57.8°F14.3°C 99% Calm Calm -- 30.01 in1016.3 mb 0.00 in0.0 mm 0.00 in0.0 mm 0.00 in0.0 mm
06:25 AM 58.1°F14.5°C 57.8°F14.3°C 99% Calm Calm -- 30.01 in1016.3 mb 0.00 in0.0 mm 0.00 in0.0 mm 0.00 in0.0 mm
06:30 AM 58.1°F14.5°C 57.8°F14.3°C 99% Calm Calm -- 30.01 in1016.3 mb 0.00 in0.0 mm 0.00 in0.0 mm 0.00 in0.0 mm
06:35 AM 58.1°F14.5°C 57.8°F14.3°C 99% Calm Calm -- 30.01 in1016.3 mb 0.00 in0.0 mm 0.00 in0.0 mm 0.00 in0.0 mm
06:40 AM 58.3°F14.6°C 58.0°F14.4°C 99% Calm Calm -- 30.01 in1016.3 mb 0.00 in0.0 mm 0.00 in0.0 mm 0.00 in0.0 mm
06:45 AM 58.5°F14.7°C 58.2°F14.6°C 99% Calm Calm -- 30.01 in1016.3 mb 0.00 in0.0 mm 0.00 in0.0 mm 0.00 in0.0 mm
06:50 AM 58.5°F14.7°C 58.2°F14.6°C 99% Calm Calm -- 30.01 in1016.3 mb 0.00 in0.0 mm 0.00 in0.0 mm 0.00 in0.0 mm
06:55 AM 59.0°F15.0°C 58.7°F14.8°C 99% Calm Calm -- 30.01 in1016.3 mb 0.00 in0.0 mm 0.00 in0.0 mm 0.00 in0.0 mm
07:00 AM 59.2°F15.1°C 58.9°F14.9°C 99% Calm Calm -- 30.02 in1016.6 mb 0.00 in0.0 mm 0.00 in0.0 mm 0.00 in0.0 mm
07:05 AM 59.5°F15.3°C 59.3°F15.2°C 99% Calm Calm -- 30.02 in1016.6 mb 0.00 in0.0 mm 0.00 in0.0 mm 0.00 in0.0 mm
07:10 AM 59.7°F15.4°C 59.5°F15.3°C 99% Calm Calm -- 30.02 in1016.6 mb 0.00 in0.0 mm 0.00 in0.0 mm 0.00 in0.0 mm
07:15 AM 60.1°F15.6°C 59.8°F15.4°C 99% Calm Calm -- 30.02 in1016.6 mb 0.00 in0.0 mm 0.00 in0.0 mm 0.00 in0.0 mm
07:20 AM 60.4°F15.8°C 60.2°F15.7°C 99% Calm Calm -- 30.02 in1016.6 mb 0.00 in0.0 mm 0.00 in0.0 mm 0.00 in0.0 mm
07:25 AM 60.8°F16.0°C 60.2°F15.7°C 98% Calm Calm -- 30.02 in1016.6 mb 0.00 in0.0 mm 0.00 in0.0 mm 0.00 in0.0 mm
07:30 AM 61.2°F16.2°C 60.6°F15.9°C 98% Calm Calm -- 30.02 in1016.6 mb 0.00 in0.0 mm 0.00 in0.0 mm 0.00 in0.0 mm
07:35 AM 62.1°F16.7°C 61.5°F16.4°C 98% Calm Calm -- 30.02 in1016.6 mb 0.00 in0.0 mm 0.00 in0.0 mm 0.00 in0.0 mm
07:40 AM 63.0°F17.2°C 62.1°F16.7°C 97% Calm Calm -- 30.02 in1016.6 mb 0.00 in0.0 mm 0.00 in0.0 mm 0.00 in0.0 mm
07:45 AM 63.7°F17.6°C 62.8°F17.1°C 97% Calm Calm -- 30.03 in1016.9 mb 0.00 in0.0 mm 0.00 in0.0 mm 0.00 in0.0 mm
07:50 AM 64.6°F18.1°C 63.7°F17.6°C 97% Calm Calm -- 30.02 in1016.6 mb 0.00 in0.0 mm 0.00 in0.0 mm 0.00 in0.0 mm
07:55 AM 65.3°F18.5°C 64.2°F17.9°C 96% Calm Calm -- 30.02 in1016.6 mb 0.00 in0.0 mm 0.00 in0.0 mm 0.00 in0.0 mm
08:00 AM 66.2°F19.0°C 64.1°F17.8°C 93% Calm Calm -- 30.02 in1016.6 mb 0.00 in0.0 mm 0.00 in0.0 mm 0.00 in0.0 mm
08:05 AM 67.1°F19.5°C 64.1°F17.8°C 90% Calm Calm -- 30.02 in1016.6 mb 0.00 in0.0 mm 0.00 in0.0 mm 0.00 in0.0 mm
08:10 AM 67.6°F19.8°C 64.0°F17.8°C 88% 1.6 mph W2.6 kmh W 3.1 mph5.0 kmh 30.02 in1016.6 mb 0.00 in0.0 mm 0.00 in0.0 mm 0.00 in0.0 mm
08:15 AM 67.8°F19.9°C 63.5°F17.5°C 86% 1.6 mph W2.6 kmh W 3.1 mph5.0 kmh 30.03 in1016.9 mb 0.00 in0.0 mm 0.00 in0.0 mm 0.00 in0.0 mm
08:20 AM 67.8°F19.9°C 63.2°F17.3°C 85% 1.6 mph W2.6 kmh W 3.8 mph6.1 kmh 30.02 in1016.6 mb 0.00 in0.0 mm 0.00 in0.0 mm 0.00 in0.0 mm
08:25 AM 68.2°F20.1°C 63.2°F17.3°C 84% 2.2 mph WSW3.5 kmh WSW 3.8 mph6.1 kmh 30.03 in1016.9 mb 0.00 in0.0 mm 0.00 in0.0 mm 0.00 in0.0 mm
08:30 AM 68.4°F20.2°C 63.4°F17.4°C 84% 1.6 mph WSW2.6 kmh WSW 3.8 mph6.1 kmh 30.03 in1016.9 mb 0.00 in0.0 mm 0.00 in0.0 mm 0.00 in0.0 mm
08:35 AM 68.9°F20.5°C 63.9°F17.7°C 84% 1.6 mph W2.6 kmh W 3.8 mph6.1 kmh 30.03 in1016.9 mb 0.00 in0.0 mm 0.00 in0.0 mm 0.00 in0.0 mm
08:40 AM 69.3°F20.7°C 63.9°F17.7°C 83% 2.2 mph WNW3.5 kmh WNW 3.1 mph5.0 kmh 30.03 in1016.9 mb 0.00 in0.0 mm 0.00 in0.0 mm 0.00 in0.0 mm
08:45 AM 69.4°F20.8°C 63.4°F17.4°C 81% Calm Calm 3.1 mph5.0 kmh 30.02 in1016.6 mb 0.00 in0.0 mm 0.00 in0.0 mm 0.00 in0.0 mm
08:50 AM 69.8°F21.0°C 63.4°F17.4°C 80% 1.6 mph WSW2.6 kmh WSW 3.1 mph5.0 kmh 30.02 in1016.6 mb 0.00 in0.0 mm 0.00 in0.0 mm 0.00 in0.0 mm
08:55 AM 70.3°F21.3°C 63.9°F17.7°C 80% 1.6 mph W2.6 kmh W 3.1 mph5.0 kmh 30.02 in1016.6 mb 0.00 in0.0 mm 0.00 in0.0 mm 0.00 in0.0 mm
09:00 AM 71.1°F21.7°C 63.5°F17.5°C 77% 0.7 mph WSW1.1 kmh WSW 3.1 mph5.0 kmh 30.02 in1016.6 mb 0.00 in0.0 mm 0.00 in0.0 mm 0.00 in0.0 mm
09:05 AM 71.6°F22.0°C 62.9°F17.2°C 74% 2.2 mph S3.5 kmh S 3.1 mph5.0 kmh 30.02 in1016.6 mb 0.00 in0.0 mm 0.00 in0.0 mm 0.00 in0.0 mm
09:10 AM 72.1°F22.3°C 63.4°F17.4°C 74% 1.6 mph SW2.6 kmh SW 3.1 mph5.0 kmh 30.02 in1016.6 mb 0.00 in0.0 mm 0.00 in0.0 mm 0.00 in0.0 mm
09:15 AM 72.3°F22.4°C 62.8°F17.1°C 72% 2.2 mph SSW3.5 kmh SSW 4.5 mph7.2 kmh 30.02 in1016.6 mb 0.00 in0.0 mm 0.00 in0.0 mm 0.00 in0.0 mm
09:20 AM 72.7°F22.6°C 62.8°F17.1°C 71% 1.6 mph S2.6 kmh S 4.5 mph7.2 kmh 30.03 in1016.9 mb 0.00 in0.0 mm 0.00 in0.0 mm 0.00 in0.0 mm
09:25 AM 72.7°F22.6°C 62.8°F17.1°C 71% 1.6 mph SW2.6 kmh SW 4.5 mph7.2 kmh 30.03 in1016.9 mb 0.00 in0.0 mm 0.00 in0.0 mm 0.00 in0.0 mm
09:30 AM 72.9°F22.7°C 63.3°F17.4°C 72% 2.2 mph W3.5 kmh W 5.4 mph8.7 kmh 30.02 in1016.6 mb 0.00 in0.0 mm 0.00 in0.0 mm 0.00 in0.0 mm
09:35 AM 73.0°F22.8°C 63.5°F17.5°C 72% 0.7 mph W1.1 kmh W 5.4 mph8.7 kmh 30.03 in1016.9 mb 0.00 in0.0 mm 0.00 in0.0 mm 0.00 in0.0 mm
09:40 AM 73.4°F23.0°C 63.5°F17.5°C 71% 0.7 mph WNW1.1 kmh WNW 5.4 mph8.7 kmh 30.03 in1016.9 mb 0.00 in0.0 mm 0.00 in0.0 mm 0.00 in0.0 mm
09:45 AM 73.6°F23.1°C 63.6°F17.6°C 71% 1.6 mph W2.6 kmh W 3.8 mph6.1 kmh 30.03 in1016.9 mb 0.00 in0.0 mm 0.00 in0.0 mm 0.00 in0.0 mm
09:50 AM 74.1°F23.4°C 63.3°F17.4°C 69% 1.6 mph SW2.6 kmh SW 3.8 mph6.1 kmh 30.03 in1016.9 mb 0.00 in0.0 mm 0.00 in0.0 mm 0.00 in0.0 mm
09:55 AM 74.5°F23.6°C 63.7°F17.6°C 69% 3.1 mph SW5.0 kmh SW 6.0 mph9.7 kmh 30.02 in1016.6 mb 0.00 in0.0 mm 0.00 in0.0 mm 0.00 in0.0 mm
10:00 AM 74.8°F23.8°C 63.6°F17.6°C 68% 1.6 mph WSW2.6 kmh WSW 6.0 mph9.7 kmh 30.02 in1016.6 mb 0.00 in0.0 mm 0.00 in0.0 mm 0.00 in0.0 mm
10:05 AM 75.4°F24.1°C 64.1°F17.8°C 68% 1.6 mph W2.6 kmh W 4.5 mph7.2 kmh 30.02 in1016.6 mb 0.00 in0.0 mm 0.00 in0.0 mm 0.00 in0.0 mm
10:10 AM 75.6°F24.2°C 63.4°F17.4°C 66% 1.6 mph WSW2.6 kmh WSW 4.5 mph7.2 kmh 30.02 in1016.6 mb 0.00 in0.0 mm 0.00 in0.0 mm 0.00 in0.0 mm
10:15 AM 75.9°F24.4°C 63.8°F17.7°C 66% 3.8 mph SW6.1 kmh SW 6.0 mph9.7 kmh 30.02 in1016.6 mb 0.00 in0.0 mm 0.00 in0.0 mm 0.00 in0.0 mm
10:20 AM 75.7°F24.3°C 63.2°F17.3°C 65% 2.2 mph W3.5 kmh W 6.0 mph9.7 kmh 30.02 in1016.6 mb 0.00 in0.0 mm 0.00 in0.0 mm 0.00 in0.0 mm
10:25 AM 76.1°F24.5°C 64.0°F17.8°C 66% 3.1 mph W5.0 kmh W 5.4 mph8.7 kmh 30.02 in1016.6 mb 0.00 in0.0 mm 0.00 in0.0 mm 0.00 in0.0 mm
10:30 AM 76.6°F24.8°C 64.0°F17.8°C 65% 1.6 mph W2.6 kmh W 5.4 mph8.7 kmh 30.02 in1016.6 mb 0.00 in0.0 mm 0.00 in0.0 mm 0.00 in0.0 mm
10:35 AM 77.0°F25.0°C 62.6°F17.0°C 61% 0.7 mph W1.1 kmh W 5.4 mph8.7 kmh 30.02 in1016.6 mb 0.00 in0.0 mm 0.00 in0.0 mm 0.00 in0.0 mm
10:40 AM 77.4°F25.2°C 63.8°F17.7°C 63% 1.6 mph WNW2.6 kmh WNW 3.8 mph6.1 kmh 30.02 in1016.6 mb 0.00 in0.0 mm 0.00 in0.0 mm 0.00 in0.0 mm
10:45 AM 77.9°F25.5°C 63.9°F17.7°C 62% 2.2 mph W3.5 kmh W 3.8 mph6.1 kmh 30.02 in1016.6 mb 0.00 in0.0 mm 0.00 in0.0 mm 0.00 in0.0 mm
10:50 AM 77.9°F25.5°C 62.5°F16.9°C 59% Calm Calm 3.8 mph6.1 kmh 30.02 in1016.6 mb 0.00 in0.0 mm 0.00 in0.0 mm 0.00 in0.0 mm
10:55 AM 78.4°F25.8°C 63.0°F17.2°C 59% 2.2 mph WNW3.5 kmh WNW 3.8 mph6.1 kmh 30.02 in1016.6 mb 0.00 in0.0 mm 0.00 in0.0 mm 0.00 in0.0 mm
11:00 AM 79.0°F26.1°C 63.5°F17.5°C 59% 4.5 mph SW7.2 kmh SW 6.0 mph9.7 kmh 30.01 in1016.3 mb 0.00 in0.0 mm 0.00 in0.0 mm 0.00 in0.0 mm
11:05 AM 79.0°F26.1°C 63.5°F17.5°C 59% 4.5 mph SSE7.2 kmh SSE 6.0 mph9.7 kmh 30.01 in1016.3 mb 0.00 in0.0 mm 0.00 in0.0 mm 0.00 in0.0 mm
11:10 AM 79.0°F26.1°C 64.0°F17.8°C 60% 1.6 mph SSE2.6 kmh SSE 6.0 mph9.7 kmh 30.01 in1016.3 mb 0.00 in0.0 mm 0.00 in0.0 mm 0.00 in0.0 mm
11:15 AM 79.3°F26.3°C 64.3°F17.9°C 60% Calm Calm 6.0 mph9.7 kmh 30.01 in1016.3 mb 0.00 in0.0 mm 0.00 in0.0 mm 0.00 in0.0 mm
11:20 AM 79.9°F26.6°C 65.7°F18.7°C 62% 0.7 mph NW1.1 kmh NW 4.5 mph7.2 kmh 30.00 in1015.9 mb 0.00 in0.0 mm 0.00 in0.0 mm 0.00 in0.0 mm
11:25 AM 80.4°F26.9°C 64.3°F17.9°C 58% 1.6 mph NW2.6 kmh NW 5.4 mph8.7 kmh 30.01 in1016.3 mb 0.00 in0.0 mm 0.00 in0.0 mm 0.00 in0.0 mm
11:30 AM 80.4°F26.9°C 63.8°F17.7°C 57% 2.2 mph SW3.5 kmh SW 5.4 mph8.7 kmh 30.00 in1015.9 mb 0.00 in0.0 mm 0.00 in0.0 mm 0.00 in0.0 mm
11:35 AM 80.6°F27.0°C 64.0°F17.8°C 57% 2.2 mph SW3.5 kmh SW 6.9 mph11.1 kmh 30.01 in1016.3 mb 0.00 in0.0 mm 0.00 in0.0 mm 0.00 in0.0 mm
11:40 AM 80.4°F26.9°C 63.3°F17.4°C 56% 1.6 mph WSW2.6 kmh WSW 6.9 mph11.1 kmh 30.01 in1016.3 mb 0.00 in0.0 mm 0.00 in0.0 mm 0.00 in0.0 mm
11:45 AM 80.8°F27.1°C 63.7°F17.6°C 56% 0.7 mph SSW1.1 kmh SSW 4.5 mph7.2 kmh 30.00 in1015.9 mb 0.00 in0.0 mm 0.00 in0.0 mm 0.00 in0.0 mm
11:50 AM 81.1°F27.3°C 63.0°F17.2°C 54% 3.1 mph SW5.0 kmh SW 6.0 mph9.7 kmh 30.00 in1015.9 mb 0.00 in0.0 mm 0.00 in0.0 mm 0.00 in0.0 mm
11:55 AM 80.4°F26.9°C 62.3°F16.8°C 54% 1.6 mph SW2.6 kmh SW 6.0 mph9.7 kmh 30.00 in1015.9 mb 0.00 in0.0 mm 0.00 in0.0 mm 0.00 in0.0 mm
12:00 PM 79.9°F26.6°C 62.8°F17.1°C 56% 3.1 mph SW5.0 kmh SW 6.0 mph9.7 kmh 30.00 in1015.9 mb 0.00 in0.0 mm 0.00 in0.0 mm 0.00 in0.0 mm
12:05 PM 80.6°F27.0°C 63.0°F17.2°C 55% 3.8 mph WSW6.1 kmh WSW 6.0 mph9.7 kmh 30.00 in1015.9 mb 0.00 in0.0 mm 0.00 in0.0 mm 0.00 in0.0 mm
12:10 PM 81.3°F27.4°C 62.6°F17.0°C 53% 3.8 mph WSW6.1 kmh WSW 6.0 mph9.7 kmh 29.99 in1015.6 mb 0.00 in0.0 mm 0.00 in0.0 mm 0.00 in0.0 mm
12:15 PM 81.7°F27.6°C 62.4°F16.9°C 52% 1.6 mph SW2.6 kmh SW 6.0 mph9.7 kmh 30.00 in1015.9 mb 0.00 in0.0 mm 0.00 in0.0 mm 0.00 in0.0 mm
12:20 PM 82.2°F27.9°C 64.0°F17.8°C 54% 6.9 mph W11.1 kmh W 8.3 mph13.4 kmh 29.99 in1015.6 mb 0.00 in0.0 mm 0.00 in0.0 mm 0.00 in0.0 mm
12:25 PM 82.6°F28.1°C 63.8°F17.7°C 53% 1.6 mph NW2.6 kmh NW 8.3 mph13.4 kmh 30.00 in1015.9 mb 0.00 in0.0 mm 0.00 in0.0 mm 0.00 in0.0 mm
12:30 PM 82.6°F28.1°C 62.7°F17.1°C 51% 3.1 mph WNW5.0 kmh WNW 8.3 mph13.4 kmh 29.99 in1015.6 mb 0.00 in0.0 mm 0.00 in0.0 mm 0.00 in0.0 mm
12:35 PM 82.2°F27.9°C 62.3°F16.8°C 51% 2.2 mph WNW3.5 kmh WNW 7.6 mph12.2 kmh 30.00 in1015.9 mb 0.00 in0.0 mm 0.00 in0.0 mm 0.00 in0.0 mm
12:40 PM 82.2°F27.9°C 63.4°F17.4°C 53% 3.1 mph WNW5.0 kmh WNW 7.6 mph12.2 kmh 29.99 in1015.6 mb 0.00 in0.0 mm 0.00 in0.0 mm 0.00 in0.0 mm
12:45 PM 82.8°F28.2°C 62.3°F16.8°C 50% 2.2 mph NW3.5 kmh NW 9.8 mph15.8 kmh 29.99 in1015.6 mb 0.00 in0.0 mm 0.00 in0.0 mm 0.00 in0.0 mm
12:50 PM 82.8°F28.2°C 62.3°F16.8°C 50% 2.2 mph WNW3.5 kmh WNW 9.8 mph15.8 kmh 29.99 in1015.6 mb 0.00 in0.0 mm 0.00 in0.0 mm 0.00 in0.0 mm
12:55 PM 83.3°F28.5°C 62.2°F16.8°C 49% 0.7 mph WNW1.1 kmh WNW 9.8 mph15.8 kmh 29.99 in1015.6 mb 0.00 in0.0 mm 0.00 in0.0 mm 0.00 in0.0 mm
01:00 PM 83.1°F28.4°C 61.4°F16.3°C 48% 3.1 mph WNW5.0 kmh WNW 9.2 mph14.8 kmh 29.98 in1015.2 mb 0.00 in0.0 mm 0.00 in0.0 mm 0.00 in0.0 mm
01:05 PM 83.1°F28.4°C 61.4°F16.3°C 48% 3.1 mph W5.0 kmh W 9.2 mph14.8 kmh 29.98 in1015.2 mb 0.00 in0.0 mm 0.00 in0.0 mm 0.00 in0.0 mm
01:10 PM 83.7°F28.7°C 61.9°F16.6°C 48% 0.7 mph W1.1 kmh W 6.9 mph11.1 kmh 29.98 in1015.2 mb 0.00 in0.0 mm 0.00 in0.0 mm 0.00 in0.0 mm
01:15 PM 84.2°F29.0°C 61.8°F16.6°C 47% 2.2 mph W3.5 kmh W 6.9 mph11.1 kmh 29.98 in1015.2 mb 0.00 in0.0 mm 0.00 in0.0 mm 0.00 in0.0 mm
01:20 PM 84.7°F29.3°C 62.3°F16.8°C 47% 1.6 mph SSW2.6 kmh SSW 5.4 mph8.7 kmh 29.98 in1015.2 mb 0.00 in0.0 mm 0.00 in0.0 mm 0.00 in0.0 mm
01:25 PM 85.1°F29.5°C 61.4°F16.3°C 45% 3.1 mph SSW5.0 kmh SSW 7.6 mph12.2 kmh 29.98 in1015.2 mb 0.00 in0.0 mm 0.00 in0.0 mm 0.00 in0.0 mm
01:30 PM 85.5°F29.7°C 61.7°F16.5°C 45% 6.0 mph WSW9.7 kmh WSW 7.6 mph12.2 kmh 29.98 in1015.2 mb 0.00 in0.0 mm 0.00 in0.0 mm 0.00 in0.0 mm
01:35 PM 85.6°F29.8°C 59.3°F15.2°C 41% 1.6 mph W2.6 kmh W 7.6 mph12.2 kmh 29.98 in1015.2 mb 0.00 in0.0 mm 0.00 in0.0 mm 0.00 in0.0 mm
01:40 PM 85.8°F29.9°C 60.1°F15.6°C 42% 4.5 mph WSW7.2 kmh WSW 7.6 mph12.2 kmh 29.98 in1015.2 mb 0.00 in0.0 mm 0.00 in0.0 mm 0.00 in0.0 mm
01:45 PM 86.2°F30.1°C 59.1°F15.1°C 40% 3.1 mph W5.0 kmh W 6.9 mph11.1 kmh 29.97 in1014.9 mb 0.00 in0.0 mm 0.00 in0.0 mm 0.00 in0.0 mm
01:50 PM 86.4°F30.2°C 57.1°F13.9°C 37% 6.0 mph W9.7 kmh W 9.8 mph15.8 kmh 29.98 in1015.2 mb 0.00 in0.0 mm 0.00 in0.0 mm 0.00 in0.0 mm
01:55 PM 86.2°F30.1°C 54.6°F12.6°C 34% 3.8 mph W6.1 kmh W 9.8 mph15.8 kmh 29.97 in1014.9 mb 0.00 in0.0 mm 0.00 in0.0 mm 0.00 in0.0 mm
02:00 PM 86.4°F30.2°C 50.4°F10.2°C 29% 1.6 mph WNW2.6 kmh WNW 9.8 mph15.8 kmh 29.97 in1014.9 mb 0.00 in0.0 mm 0.00 in0.0 mm 0.00 in0.0 mm
02:05 PM 86.7°F30.4°C 51.6°F10.9°C 30% 4.5 mph WNW7.2 kmh WNW 9.2 mph14.8 kmh 29.97 in1014.9 mb 0.00 in0.0 mm 0.00 in0.0 mm 0.00 in0.0 mm
02:10 PM 87.4°F30.8°C 50.4°F10.2°C 28% 8.3 mph NW13.4 kmh NW 9.8 mph15.8 kmh 29.97 in1014.9 mb 0.00 in0.0 mm 0.00 in0.0 mm 0.00 in0.0 mm
02:15 PM 87.1°F30.6°C 50.1°F10.1°C 28% 2.2 mph NW3.5 kmh NW 9.8 mph15.8 kmh 29.97 in1014.9 mb 0.00 in0.0 mm 0.00 in0.0 mm 0.00 in0.0 mm
02:20 PM 87.8°F31.0°C 54.3°F12.4°C 32% 4.5 mph NW7.2 kmh NW 8.3 mph13.4 kmh 29.97 in1014.9 mb 0.00 in0.0 mm 0.00 in0.0 mm 0.00 in0.0 mm
02:25 PM 88.0°F31.1°C 50.8°F10.4°C 28% 1.6 mph WNW2.6 kmh WNW 7.6 mph12.2 kmh 29.96 in1014.6 mb 0.00 in0.0 mm 0.00 in0.0 mm 0.00 in0.0 mm
02:30 PM 88.2°F31.2°C 54.6°F12.6°C 32% Calm Calm 9.2 mph14.8 kmh 29.97 in1014.9 mb 0.00 in0.0 mm 0.00 in0.0 mm 0.00 in0.0 mm
02:35 PM 88.3°F31.3°C 54.8°F12.7°C 32% 2.2 mph WSW3.5 kmh WSW 9.2 mph14.8 kmh 29.96 in1014.6 mb 0.00 in0.0 mm 0.00 in0.0 mm 0.00 in0.0 mm
02:40 PM 88.3°F31.3°C 50.2°F10.1°C 27% 0.7 mph SSW1.1 kmh SSW 8.3 mph13.4 kmh 29.97 in1014.9 mb 0.00 in0.0 mm 0.00 in0.0 mm 0.00 in0.0 mm
02:45 PM 88.5°F31.4°C 48.3°F9.1°C 25% 6.0 mph SSW9.7 kmh SSW 8.3 mph13.4 kmh 29.96 in1014.6 mb 0.00 in0.0 mm 0.00 in0.0 mm 0.00 in0.0 mm
02:50 PM 89.1°F31.7°C 48.7°F9.3°C 25% 2.2 mph WSW3.5 kmh WSW 7.6 mph12.2 kmh 29.96 in1014.6 mb 0.00 in0.0 mm 0.00 in0.0 mm 0.00 in0.0 mm
02:55 PM 89.2°F31.8°C 47.8°F8.8°C 24% 2.2 mph WSW3.5 kmh WSW 7.6 mph12.2 kmh 29.96 in1014.6 mb 0.00 in0.0 mm 0.00 in0.0 mm 0.00 in0.0 mm
03:00 PM 89.8°F32.1°C 49.3°F9.6°C 25% 4.5 mph WSW7.2 kmh WSW 6.9 mph11.1 kmh 29.96 in1014.6 mb 0.00 in0.0 mm 0.00 in0.0 mm 0.00 in0.0 mm
03:05 PM 89.6°F32.0°C 49.2°F9.6°C 25% 5.4 mph W8.7 kmh W 9.2 mph14.8 kmh 29.96 in1014.6 mb 0.00 in0.0 mm 0.00 in0.0 mm 0.00 in0.0 mm
03:10 PM 89.6°F32.0°C 49.2°F9.6°C 25% 3.8 mph W6.1 kmh W 9.2 mph14.8 kmh 29.96 in1014.6 mb 0.00 in0.0 mm 0.00 in0.0 mm 0.00 in0.0 mm
03:15 PM 89.6°F32.0°C 50.2°F10.1°C 26% 5.4 mph WNW8.7 kmh WNW 9.2 mph14.8 kmh 29.96 in1014.6 mb 0.00 in0.0 mm 0.00 in0.0 mm 0.00 in0.0 mm
03:20 PM 90.0°F32.2°C 53.5°F11.9°C 29% 6.0 mph WNW9.7 kmh WNW 8.3 mph13.4 kmh 29.96 in1014.6 mb 0.00 in0.0 mm 0.00 in0.0 mm 0.00 in0.0 mm
03:25 PM 90.3°F32.4°C 55.6°F13.1°C 31% 6.0 mph W9.7 kmh W 9.2 mph14.8 kmh 29.96 in1014.6 mb 0.00 in0.0 mm 0.00 in0.0 mm 0.00 in0.0 mm
03:30 PM 90.0°F32.2°C 52.5°F11.4°C 28% 4.5 mph W7.2 kmh W 9.2 mph14.8 kmh 29.96 in1014.6 mb 0.00 in0.0 mm 0.00 in0.0 mm 0.00 in0.0 mm
03:35 PM 90.0°F32.2°C 55.3°F12.9°C 31% 6.0 mph NW9.7 kmh NW 9.8 mph15.8 kmh 29.95 in1014.2 mb 0.00 in0.0 mm 0.00 in0.0 mm 0.00 in0.0 mm
03:40 PM 89.6°F32.0°C 52.2°F11.2°C 28% 5.4 mph WNW8.7 kmh WNW 9.8 mph15.8 kmh 29.95 in1014.2 mb 0.00 in0.0 mm 0.00 in0.0 mm 0.00 in0.0 mm
03:45 PM 89.8°F32.1°C 53.3°F11.8°C 29% 6.0 mph WNW9.7 kmh WNW 9.8 mph15.8 kmh 29.95 in1014.2 mb 0.00 in0.0 mm 0.00 in0.0 mm 0.00 in0.0 mm
03:50 PM 90.0°F32.2°C 52.5°F11.4°C 28% 4.5 mph WNW7.2 kmh WNW 8.3 mph13.4 kmh 29.95 in1014.2 mb 0.00 in0.0 mm 0.00 in0.0 mm 0.00 in0.0 mm
03:55 PM 90.3°F32.4°C 54.7°F12.6°C 30% 3.8 mph WNW6.1 kmh WNW 10.7 mph17.2 kmh 29.95 in1014.2 mb 0.00 in0.0 mm 0.00 in0.0 mm 0.00 in0.0 mm
04:00 PM 90.5°F32.5°C 54.9°F12.7°C 30% 4.5 mph NW7.2 kmh NW 10.7 mph17.2 kmh 29.95 in1014.2 mb 0.00 in0.0 mm 0.00 in0.0 mm 0.00 in0.0 mm
04:05 PM 90.5°F32.5°C 56.7°F13.7°C 32% 8.3 mph NW13.4 kmh NW 10.7 mph17.2 kmh 29.95 in1014.2 mb 0.00 in0.0 mm 0.00 in0.0 mm 0.00 in0.0 mm
04:10 PM 90.5°F32.5°C 60.0°F15.6°C 36% 6.9 mph NW11.1 kmh NW 10.7 mph17.2 kmh 29.95 in1014.2 mb 0.00 in0.0 mm 0.00 in0.0 mm 0.00 in0.0 mm
04:15 PM 90.5°F32.5°C 60.0°F15.6°C 36% 6.0 mph NW9.7 kmh NW 10.7 mph17.2 kmh 29.95 in1014.2 mb 0.00 in0.0 mm 0.00 in0.0 mm 0.00 in0.0 mm
04:20 PM 90.1°F32.3°C 61.2°F16.2°C 38% 6.9 mph NW11.1 kmh NW 9.8 mph15.8 kmh 29.95 in1014.2 mb 0.00 in0.0 mm 0.00 in0.0 mm 0.00 in0.0 mm
04:25 PM 90.0°F32.2°C 61.0°F16.1°C 38% 7.6 mph W12.2 kmh W 11.4 mph18.3 kmh 29.94 in1013.9 mb 0.00 in0.0 mm 0.00 in0.0 mm 0.00 in0.0 mm
04:30 PM 89.6°F32.0°C 62.1°F16.7°C 40% 3.1 mph WNW5.0 kmh WNW 11.4 mph18.3 kmh 29.95 in1014.2 mb 0.00 in0.0 mm 0.00 in0.0 mm 0.00 in0.0 mm
04:35 PM 89.6°F32.0°C 62.8°F17.1°C 41% 6.9 mph NW11.1 kmh NW 12.1 mph19.5 kmh 29.94 in1013.9 mb 0.00 in0.0 mm 0.00 in0.0 mm 0.00 in0.0 mm
04:40 PM 89.8°F32.1°C 61.6°F16.4°C 39% 6.9 mph WNW11.1 kmh WNW 12.1 mph19.5 kmh 29.94 in1013.9 mb 0.00 in0.0 mm 0.00 in0.0 mm 0.00 in0.0 mm
04:45 PM 90.0°F32.2°C 63.2°F17.3°C 41% 7.6 mph W12.2 kmh W 12.1 mph19.5 kmh 29.94 in1013.9 mb 0.00 in0.0 mm 0.00 in0.0 mm 0.00 in0.0 mm
04:50 PM 89.8°F32.1°C 63.0°F17.2°C 41% 7.6 mph WNW12.2 kmh WNW 12.1 mph19.5 kmh 29.94 in1013.9 mb 0.00 in0.0 mm 0.00 in0.0 mm 0.00 in0.0 mm
04:55 PM 89.2°F31.8°C 63.9°F17.7°C 43% 5.4 mph WNW8.7 kmh WNW 11.4 mph18.3 kmh 29.94 in1013.9 mb 0.00 in0.0 mm 0.00 in0.0 mm 0.00 in0.0 mm
05:00 PM 89.1°F31.7°C 63.0°F17.2°C 42% 3.8 mph NW6.1 kmh NW 11.4 mph18.3 kmh 29.94 in1013.9 mb 0.00 in0.0 mm 0.00 in0.0 mm 0.00 in0.0 mm
05:05 PM 89.2°F31.8°C 64.5°F18.1°C 44% 9.8 mph NW15.8 kmh NW 11.4 mph18.3 kmh 29.94 in1013.9 mb 0.00 in0.0 mm 0.00 in0.0 mm 0.00 in0.0 mm
05:10 PM 89.4°F31.9°C 64.0°F17.8°C 43% 7.6 mph NW12.2 kmh NW 12.1 mph19.5 kmh 29.94 in1013.9 mb 0.00 in0.0 mm 0.00 in0.0 mm 0.00 in0.0 mm
05:15 PM 89.4°F31.9°C 64.0°F17.8°C 43% 6.9 mph WNW11.1 kmh WNW 12.1 mph19.5 kmh 29.94 in1013.9 mb 0.00 in0.0 mm 0.00 in0.0 mm 0.00 in0.0 mm
05:20 PM 89.2°F31.8°C 63.9°F17.7°C 43% 9.2 mph NW14.8 kmh NW 12.1 mph19.5 kmh 29.94 in1013.9 mb 0.00 in0.0 mm 0.00 in0.0 mm 0.00 in0.0 mm
05:25 PM 89.2°F31.8°C 63.9°F17.7°C 43% 6.0 mph NW9.7 kmh NW 12.1 mph19.5 kmh 29.93 in1013.5 mb 0.00 in0.0 mm 0.00 in0.0 mm 0.00 in0.0 mm
05:30 PM 88.9°F31.6°C 62.9°F17.2°C 42% 6.0 mph WNW9.7 kmh WNW 12.1 mph19.5 kmh 29.94 in1013.9 mb 0.00 in0.0 mm 0.00 in0.0 mm 0.00 in0.0 mm
05:35 PM 88.7°F31.5°C 63.4°F17.4°C 43% 4.5 mph WNW7.2 kmh WNW 11.4 mph18.3 kmh 29.93 in1013.5 mb 0.00 in0.0 mm 0.00 in0.0 mm 0.00 in0.0 mm
05:40 PM 88.9°F31.6°C 62.9°F17.2°C 42% 7.6 mph WNW12.2 kmh WNW 12.1 mph19.5 kmh 29.94 in1013.9 mb 0.00 in0.0 mm 0.00 in0.0 mm 0.00 in0.0 mm
05:45 PM 88.7°F31.5°C 63.4°F17.4°C 43% 6.9 mph WNW11.1 kmh WNW 12.1 mph19.5 kmh 29.93 in1013.5 mb 0.00 in0.0 mm 0.00 in0.0 mm 0.00 in0.0 mm
05:50 PM 88.7°F31.5°C 63.4°F17.4°C 43% 6.9 mph WNW11.1 kmh WNW 11.4 mph18.3 kmh 29.93 in1013.5 mb 0.00 in0.0 mm 0.00 in0.0 mm 0.00 in0.0 mm
05:55 PM 88.9°F31.6°C 62.9°F17.2°C 42% 7.6 mph WNW12.2 kmh WNW 12.1 mph19.5 kmh 29.93 in1013.5 mb 0.00 in0.0 mm 0.00 in0.0 mm 0.00 in0.0 mm
06:00 PM 89.1°F31.7°C 63.0°F17.2°C 42% 5.4 mph WNW8.7 kmh WNW 12.1 mph19.5 kmh 29.93 in1013.5 mb 0.00 in0.0 mm 0.00 in0.0 mm 0.00 in0.0 mm
06:05 PM 89.1°F31.7°C 63.0°F17.2°C 42% 5.4 mph NW8.7 kmh NW 13.6 mph21.9 kmh 29.93 in1013.5 mb 0.00 in0.0 mm 0.00 in0.0 mm 0.00 in0.0 mm
06:10 PM 89.1°F31.7°C 63.0°F17.2°C 42% 7.6 mph NW12.2 kmh NW 13.6 mph21.9 kmh 29.93 in1013.5 mb 0.00 in0.0 mm 0.00 in0.0 mm 0.00 in0.0 mm
06:15 PM 88.5°F31.4°C 62.6°F17.0°C 42% 6.9 mph WNW11.1 kmh WNW 13.6 mph21.9 kmh 29.93 in1013.5 mb 0.00 in0.0 mm 0.00 in0.0 mm 0.00 in0.0 mm
06:20 PM 87.4°F30.8°C 62.3°F16.8°C 43% 9.2 mph WNW14.8 kmh WNW 13.6 mph21.9 kmh 29.93 in1013.5 mb 0.00 in0.0 mm 0.00 in0.0 mm 0.00 in0.0 mm
06:25 PM 86.7°F30.4°C 61.6°F16.4°C 43% 6.0 mph NW9.7 kmh NW 12.1 mph19.5 kmh 29.94 in1013.9 mb 0.00 in0.0 mm 0.00 in0.0 mm 0.00 in0.0 mm
06:30 PM 86.2°F30.1°C 61.1°F16.2°C 43% 6.9 mph WNW11.1 kmh WNW 13.0 mph20.9 kmh 29.93 in1013.5 mb 0.00 in0.0 mm 0.00 in0.0 mm 0.00 in0.0 mm
06:35 PM 85.6°F29.8°C 61.9°F16.6°C 45% 6.0 mph WNW9.7 kmh WNW 13.0 mph20.9 kmh 29.94 in1013.9 mb 0.00 in0.0 mm 0.00 in0.0 mm 0.00 in0.0 mm
06:40 PM 85.3°F29.6°C 61.6°F16.4°C 45% 5.4 mph NW8.7 kmh NW 13.0 mph20.9 kmh 29.94 in1013.9 mb 0.00 in0.0 mm 0.00 in0.0 mm 0.00 in0.0 mm
06:45 PM 85.3°F29.6°C 61.6°F16.4°C 45% 4.5 mph NW7.2 kmh NW 11.4 mph18.3 kmh 29.94 in1013.9 mb 0.00 in0.0 mm 0.00 in0.0 mm 0.00 in0.0 mm
06:50 PM 85.5°F29.7°C 61.7°F16.5°C 45% 3.8 mph NW6.1 kmh NW 11.4 mph18.3 kmh 29.94 in1013.9 mb 0.00 in0.0 mm 0.00 in0.0 mm 0.00 in0.0 mm
06:55 PM 85.3°F29.6°C 61.6°F16.4°C 45% 3.8 mph NW6.1 kmh NW 11.4 mph18.3 kmh 29.94 in1013.9 mb 0.00 in0.0 mm 0.00 in0.0 mm 0.00 in0.0 mm
07:00 PM 85.1°F29.5°C 62.0°F16.7°C 46% 4.5 mph WNW7.2 kmh WNW 10.7 mph17.2 kmh 29.94 in1013.9 mb 0.00 in0.0 mm 0.00 in0.0 mm 0.00 in0.0 mm
07:05 PM 84.9°F29.4°C 61.9°F16.6°C 46% 4.5 mph WNW7.2 kmh WNW 9.8 mph15.8 kmh 29.94 in1013.9 mb 0.00 in0.0 mm 0.00 in0.0 mm 0.00 in0.0 mm
07:10 PM 84.9°F29.4°C 61.9°F16.6°C 46% 6.9 mph WNW11.1 kmh WNW 9.2 mph14.8 kmh 29.94 in1013.9 mb 0.00 in0.0 mm 0.00 in0.0 mm 0.00 in0.0 mm
07:15 PM 84.7°F29.3°C 61.7°F16.5°C 46% 4.5 mph NW7.2 kmh NW 9.8 mph15.8 kmh 29.94 in1013.9 mb 0.00 in0.0 mm 0.00 in0.0 mm 0.00 in0.0 mm
07:20 PM 84.4°F29.1°C 62.0°F16.7°C 47% 4.5 mph NW7.2 kmh NW 10.7 mph17.2 kmh 29.94 in1013.9 mb 0.00 in0.0 mm 0.00 in0.0 mm 0.00 in0.0 mm
07:25 PM 84.0°F28.9°C 62.9°F17.2°C 49% 8.3 mph WNW13.4 kmh WNW 11.4 mph18.3 kmh 29.95 in1014.2 mb 0.00 in0.0 mm 0.00 in0.0 mm 0.00 in0.0 mm
07:30 PM 83.7°F28.7°C 62.5°F16.9°C 49% 4.5 mph WNW7.2 kmh WNW 13.6 mph21.9 kmh 29.94 in1013.9 mb 0.00 in0.0 mm 0.00 in0.0 mm 0.00 in0.0 mm
07:35 PM 83.3°F28.5°C 62.2°F16.8°C 49% 6.9 mph WNW11.1 kmh WNW 13.6 mph21.9 kmh 29.95 in1014.2 mb 0.00 in0.0 mm 0.00 in0.0 mm 0.00 in0.0 mm
07:40 PM 82.9°F28.3°C 63.0°F17.2°C 51% 6.0 mph WNW9.7 kmh WNW 13.0 mph20.9 kmh 29.95 in1014.2 mb 0.00 in0.0 mm 0.00 in0.0 mm 0.00 in0.0 mm
07:45 PM 82.8°F28.2°C 62.8°F17.1°C 51% 5.4 mph NW8.7 kmh NW 9.8 mph15.8 kmh 29.95 in1014.2 mb 0.00 in0.0 mm 0.00 in0.0 mm 0.00 in0.0 mm
07:50 PM 82.6°F28.1°C 62.7°F17.1°C 51% 4.5 mph NW7.2 kmh NW 9.8 mph15.8 kmh 29.95 in1014.2 mb 0.00 in0.0 mm 0.00 in0.0 mm 0.00 in0.0 mm
07:55 PM 82.0°F27.8°C 62.7°F17.1°C 52% 7.6 mph NW12.2 kmh NW 9.8 mph15.8 kmh 29.95 in1014.2 mb 0.00 in0.0 mm 0.00 in0.0 mm 0.00 in0.0 mm
08:00 PM 81.9°F27.7°C 63.1°F17.3°C 53% 7.6 mph WNW12.2 kmh WNW 11.4 mph18.3 kmh 29.96 in1014.6 mb 0.00 in0.0 mm 0.00 in0.0 mm 0.00 in0.0 mm
08:05 PM 81.5°F27.5°C 62.8°F17.1°C 53% 3.8 mph WNW6.1 kmh WNW 12.1 mph19.5 kmh 29.95 in1014.2 mb 0.00 in0.0 mm 0.00 in0.0 mm 0.00 in0.0 mm
08:10 PM 81.5°F27.5°C 63.3°F17.4°C 54% 5.4 mph NW8.7 kmh NW 12.1 mph19.5 kmh 29.95 in1014.2 mb 0.00 in0.0 mm 0.00 in0.0 mm 0.00 in0.0 mm
08:15 PM 81.3°F27.4°C 63.7°F17.6°C 55% 5.4 mph WNW8.7 kmh WNW 8.3 mph13.4 kmh 29.96 in1014.6 mb 0.00 in0.0 mm 0.00 in0.0 mm 0.00 in0.0 mm
08:20 PM 81.0°F27.2°C 63.3°F17.4°C 55% 2.2 mph W3.5 kmh W 8.3 mph13.4 kmh 29.95 in1014.2 mb 0.00 in0.0 mm 0.00 in0.0 mm 0.00 in0.0 mm
08:25 PM 80.8°F27.1°C 64.2°F17.9°C 57% 5.4 mph WNW8.7 kmh WNW 9.2 mph14.8 kmh 29.96 in1014.6 mb 0.00 in0.0 mm 0.00 in0.0 mm 0.00 in0.0 mm
08:30 PM 80.2°F26.8°C 64.2°F17.9°C 58% 5.4 mph WNW8.7 kmh WNW 10.7 mph17.2 kmh 29.96 in1014.6 mb 0.00 in0.0 mm 0.00 in0.0 mm 0.00 in0.0 mm
08:35 PM 79.7°F26.5°C 63.7°F17.6°C 58% 6.0 mph WNW9.7 kmh WNW 10.7 mph17.2 kmh 29.96 in1014.6 mb 0.00 in0.0 mm 0.00 in0.0 mm 0.00 in0.0 mm
08:40 PM 79.5°F26.4°C 63.5°F17.5°C 58% 3.1 mph NW5.0 kmh NW 10.7 mph17.2 kmh 29.96 in1014.6 mb 0.00 in0.0 mm 0.00 in0.0 mm 0.00 in0.0 mm
08:45 PM 79.2°F26.2°C 63.6°F17.6°C 59% 2.2 mph WNW3.5 kmh WNW 9.2 mph14.8 kmh 29.96 in1014.6 mb 0.00 in0.0 mm 0.00 in0.0 mm 0.00 in0.0 mm
08:50 PM 78.8°F26.0°C 63.3°F17.4°C 59% 3.8 mph WNW6.1 kmh WNW 9.2 mph14.8 kmh 29.96 in1014.6 mb 0.00 in0.0 mm 0.00 in0.0 mm 0.00 in0.0 mm
08:55 PM 78.4°F25.8°C 63.9°F17.7°C 61% 6.9 mph WNW11.1 kmh WNW 9.2 mph14.8 kmh 29.96 in1014.6 mb 0.00 in0.0 mm 0.00 in0.0 mm 0.00 in0.0 mm
09:00 PM 78.1°F25.6°C 64.0°F17.8°C 62% 3.8 mph WNW6.1 kmh WNW 10.7 mph17.2 kmh 29.96 in1014.6 mb 0.00 in0.0 mm 0.00 in0.0 mm 0.00 in0.0 mm
09:05 PM 77.7°F25.4°C 64.2°F17.9°C 63% 5.4 mph W8.7 kmh W 12.1 mph19.5 kmh 29.97 in1014.9 mb 0.00 in0.0 mm 0.00 in0.0 mm 0.00 in0.0 mm
09:10 PM 77.5°F25.3°C 64.0°F17.8°C 63% 4.5 mph W7.2 kmh W 12.1 mph19.5 kmh 29.97 in1014.9 mb 0.00 in0.0 mm 0.00 in0.0 mm 0.00 in0.0 mm
09:15 PM 77.2°F25.1°C 64.1°F17.8°C 64% 5.4 mph WNW8.7 kmh WNW 11.4 mph18.3 kmh 29.97 in1014.9 mb 0.00 in0.0 mm 0.00 in0.0 mm 0.00 in0.0 mm
09:20 PM 76.8°F24.9°C 64.2°F17.9°C 65% 5.4 mph WNW8.7 kmh WNW 11.4 mph18.3 kmh 29.97 in1014.9 mb 0.00 in0.0 mm 0.00 in0.0 mm 0.00 in0.0 mm
09:25 PM 76.5°F24.7°C 63.9°F17.7°C 65% 4.5 mph WNW7.2 kmh WNW 9.2 mph14.8 kmh 29.97 in1014.9 mb 0.00 in0.0 mm 0.00 in0.0 mm 0.00 in0.0 mm
09:30 PM 76.1°F24.5°C 64.0°F17.8°C 66% 3.1 mph WNW5.0 kmh WNW 9.2 mph14.8 kmh 29.97 in1014.9 mb 0.00 in0.0 mm 0.00 in0.0 mm 0.00 in0.0 mm
09:35 PM 75.7°F24.3°C 63.6°F17.6°C 66% 5.4 mph WNW8.7 kmh WNW 9.2 mph14.8 kmh 29.98 in1015.2 mb 0.00 in0.0 mm 0.00 in0.0 mm 0.00 in0.0 mm
09:40 PM 75.6°F24.2°C 63.4°F17.4°C 66% 3.8 mph W6.1 kmh W 9.2 mph14.8 kmh 29.98 in1015.2 mb 0.00 in0.0 mm 0.00 in0.0 mm 0.00 in0.0 mm
09:45 PM 75.2°F24.0°C 63.5°F17.5°C 67% 4.5 mph WSW7.2 kmh WSW 9.2 mph14.8 kmh 29.98 in1015.2 mb 0.00 in0.0 mm 0.00 in0.0 mm 0.00 in0.0 mm
09:50 PM 75.0°F23.9°C 63.8°F17.7°C 68% 2.2 mph WSW3.5 kmh WSW 9.2 mph14.8 kmh 29.99 in1015.6 mb 0.00 in0.0 mm 0.00 in0.0 mm 0.00 in0.0 mm
09:55 PM 74.8°F23.8°C 64.0°F17.8°C 69% 2.2 mph WSW3.5 kmh WSW 7.6 mph12.2 kmh 29.98 in1015.2 mb 0.00 in0.0 mm 0.00 in0.0 mm 0.00 in0.0 mm
10:00 PM 74.5°F23.6°C 63.7°F17.6°C 69% 4.5 mph W7.2 kmh W 6.9 mph11.1 kmh 29.98 in1015.2 mb 0.00 in0.0 mm 0.00 in0.0 mm 0.00 in0.0 mm
10:05 PM 74.1°F23.4°C 63.3°F17.4°C 69% 6.9 mph W11.1 kmh W 8.3 mph13.4 kmh 29.99 in1015.6 mb 0.00 in0.0 mm 0.00 in0.0 mm 0.00 in0.0 mm
10:10 PM 74.1°F23.4°C 63.7°F17.6°C 70% 4.5 mph W7.2 kmh W 9.2 mph14.8 kmh 29.98 in1015.2 mb 0.00 in0.0 mm 0.00 in0.0 mm 0.00 in0.0 mm
10:15 PM 73.8°F23.2°C 63.4°F17.4°C 70% 3.8 mph W6.1 kmh W 9.2 mph14.8 kmh 29.99 in1015.6 mb 0.00 in0.0 mm 0.00 in0.0 mm 0.00 in0.0 mm
10:20 PM 73.6°F23.1°C 63.2°F17.3°C 70% 3.8 mph W6.1 kmh W 8.3 mph13.4 kmh 29.99 in1015.6 mb 0.00 in0.0 mm 0.00 in0.0 mm 0.00 in0.0 mm
10:25 PM 73.4°F23.0°C 63.5°F17.5°C 71% 2.2 mph W3.5 kmh W 8.3 mph13.4 kmh 29.99 in1015.6 mb 0.00 in0.0 mm 0.00 in0.0 mm 0.00 in0.0 mm
10:30 PM 73.0°F22.8°C 63.1°F17.3°C 71% 5.4 mph W8.7 kmh W 7.6 mph12.2 kmh 29.99 in1015.6 mb 0.00 in0.0 mm 0.00 in0.0 mm 0.00 in0.0 mm
10:35 PM 72.9°F22.7°C 62.9°F17.2°C 71% 5.4 mph W8.7 kmh W 8.3 mph13.4 kmh 29.99 in1015.6 mb 0.00 in0.0 mm 0.00 in0.0 mm 0.00 in0.0 mm
10:40 PM 72.7°F22.6°C 62.8°F17.1°C 71% 3.8 mph W6.1 kmh W 8.3 mph13.4 kmh 30.00 in1015.9 mb 0.00 in0.0 mm 0.00 in0.0 mm 0.00 in0.0 mm
10:45 PM 72.3°F22.4°C 62.8°F17.1°C 72% 2.2 mph W3.5 kmh W 6.9 mph11.1 kmh 30.00 in1015.9 mb 0.00 in0.0 mm 0.00 in0.0 mm 0.00 in0.0 mm
10:50 PM 72.1°F22.3°C 62.6°F17.0°C 72% 5.4 mph WNW8.7 kmh WNW 8.3 mph13.4 kmh 30.00 in1015.9 mb 0.00 in0.0 mm 0.00 in0.0 mm 0.00 in0.0 mm
10:55 PM 71.8°F22.1°C 62.3°F16.8°C 72% 3.8 mph WNW6.1 kmh WNW 8.3 mph13.4 kmh 30.00 in1015.9 mb 0.00 in0.0 mm 0.00 in0.0 mm 0.00 in0.0 mm
11:00 PM 71.6°F22.0°C 62.1°F16.7°C 72% 3.1 mph W5.0 kmh W 7.6 mph12.2 kmh 30.00 in1015.9 mb 0.00 in0.0 mm 0.00 in0.0 mm 0.00 in0.0 mm
11:05 PM 71.4°F21.9°C 62.7°F17.1°C 74% 3.8 mph W6.1 kmh W 6.0 mph9.7 kmh 30.00 in1015.9 mb 0.00 in0.0 mm 0.00 in0.0 mm 0.00 in0.0 mm
11:10 PM 71.2°F21.8°C 62.6°F17.0°C 74% 3.8 mph W6.1 kmh W 6.0 mph9.7 kmh 30.00 in1015.9 mb 0.00 in0.0 mm 0.00 in0.0 mm 0.00 in0.0 mm
11:15 PM 70.9°F21.6°C 62.2°F16.8°C 74% 3.1 mph W5.0 kmh W 6.0 mph9.7 kmh 30.00 in1015.9 mb 0.00 in0.0 mm 0.00 in0.0 mm 0.00 in0.0 mm
11:20 PM 70.9°F21.6°C 62.2°F16.8°C 74% 1.6 mph W2.6 kmh W 6.0 mph9.7 kmh 30.00 in1015.9 mb 0.00 in0.0 mm 0.00 in0.0 mm 0.00 in0.0 mm
11:25 PM 70.5°F21.4°C 61.9°F16.6°C 74% 1.6 mph WNW2.6 kmh WNW 6.0 mph9.7 kmh 30.00 in1015.9 mb 0.00 in0.0 mm 0.00 in0.0 mm 0.00 in0.0 mm
11:30 PM 70.5°F21.4°C 62.2°F16.8°C 75% 1.6 mph WNW2.6 kmh WNW 4.5 mph7.2 kmh 30.00 in1015.9 mb 0.00 in0.0 mm 0.00 in0.0 mm 0.00 in0.0 mm
11:35 PM 70.3°F21.3°C 62.1°F16.7°C 75% 1.6 mph W2.6 kmh W 4.5 mph7.2 kmh 30.01 in1016.3 mb 0.00 in0.0 mm 0.00 in0.0 mm 0.00 in0.0 mm
11:40 PM 70.2°F21.2°C 61.9°F16.6°C 75% 2.2 mph W3.5 kmh W 3.8 mph6.1 kmh 30.00 in1015.9 mb 0.00 in0.0 mm 0.00 in0.0 mm 0.00 in0.0 mm
11:45 PM 70.0°F21.1°C 61.7°F16.5°C 75% 2.2 mph SW3.5 kmh SW 3.8 mph6.1 kmh 30.01 in1016.3 mb 0.00 in0.0 mm 0.00 in0.0 mm 0.00 in0.0 mm
11:50 PM 70.2°F21.2°C 62.3°F16.8°C 76% 1.6 mph S2.6 kmh S 4.5 mph7.2 kmh 30.01 in1016.3 mb 0.00 in0.0 mm 0.00 in0.0 mm 0.00 in0.0 mm
11:55 PM 70.2°F21.2°C 62.3°F16.8°C 76% 2.2 mph S3.5 kmh S 4.5 mph7.2 kmh 30.01 in1016.3 mb 0.00 in0.0 mm 0.00 in0.0 mm 0.00 in0.0 mm